createdAt,value
2019-03-21T00:00:23.646Z,1028.06
2019-03-21T00:01:24.214Z,1028.02
2019-03-21T00:02:24.786Z,1028.04
2019-03-21T00:03:25.352Z,1028.07
2019-03-21T00:04:25.924Z,1027.97
2019-03-21T00:05:26.490Z,1027.90
2019-03-21T00:06:27.060Z,1027.96
2019-03-21T00:07:27.624Z,1027.91
2019-03-21T00:08:28.249Z,1027.93
2019-03-21T00:09:28.819Z,1027.96
2019-03-21T00:10:29.433Z,1027.95
2019-03-21T00:11:30.002Z,1027.89
2019-03-21T00:12:30.570Z,1027.95
2019-03-21T00:13:31.141Z,1027.88
2019-03-21T00:14:31.760Z,1027.88
2019-03-21T00:15:32.377Z,1027.90
2019-03-21T00:16:32.945Z,1027.89
2019-03-21T00:17:33.514Z,1027.90
2019-03-21T00:18:34.134Z,1027.93
2019-03-21T00:19:34.700Z,1027.79
2019-03-21T00:20:35.268Z,1027.87
2019-03-21T00:21:35.888Z,1027.84
2019-03-21T00:22:36.456Z,1027.83
2019-03-21T00:23:37.025Z,1027.82
2019-03-21T00:24:37.594Z,1027.73
2019-03-21T00:25:38.162Z,1027.77
2019-03-21T00:26:38.780Z,1027.75
2019-03-21T00:27:39.348Z,1027.75
2019-03-21T00:28:39.917Z,1027.68
2019-03-21T00:29:40.485Z,1027.75
2019-03-21T00:30:41.157Z,1027.78
2019-03-21T00:31:41.772Z,1027.77
2019-03-21T00:32:42.343Z,1027.70
2019-03-21T00:33:43.012Z,1027.74
2019-03-21T00:34:43.683Z,1027.75
2019-03-21T00:35:44.353Z,1027.72
2019-03-21T00:36:45.123Z,1027.72
2019-03-21T00:37:45.692Z,1027.77
2019-03-21T00:38:46.261Z,1027.72
2019-03-21T00:39:46.832Z,1027.71
2019-03-21T00:41:01.113Z,1027.81
2019-03-21T00:42:01.688Z,1027.75
2019-03-21T00:43:02.265Z,1027.72
2019-03-21T00:44:02.843Z,1027.72
2019-03-21T00:45:03.421Z,1027.74
2019-03-21T00:46:03.993Z,1027.70
2019-03-21T00:47:04.574Z,1027.79
2019-03-21T00:48:05.146Z,1027.69
2019-03-21T00:49:05.723Z,1027.73
2019-03-21T00:50:06.297Z,1027.71
2019-03-21T00:51:06.876Z,1027.80
2019-03-21T00:52:07.498Z,1027.77
2019-03-21T00:53:08.124Z,1027.81
2019-03-21T00:54:08.698Z,1027.76
2019-03-21T00:55:09.276Z,1027.75
2019-03-21T00:56:09.852Z,1027.79
2019-03-21T00:57:10.477Z,1027.77
2019-03-21T00:58:11.104Z,1027.72
2019-03-21T00:59:11.677Z,1027.83
2019-03-21T01:00:12.251Z,1027.81
2019-03-21T01:01:12.875Z,1027.78
2019-03-21T01:02:13.450Z,1027.82
2019-03-21T01:03:14.041Z,1027.86
2019-03-21T01:04:14.601Z,1027.77
2019-03-21T01:05:15.178Z,1027.83
2019-03-21T01:06:15.753Z,1027.84
2019-03-21T01:07:16.330Z,1027.92
2019-03-21T01:08:16.909Z,1027.87
2019-03-21T01:09:17.481Z,1027.83
2019-03-21T01:10:18.108Z,1027.85
2019-03-21T01:11:18.679Z,1027.89
2019-03-21T01:12:19.301Z,1027.86
2019-03-21T01:13:19.878Z,1027.86
2019-03-21T01:14:29.464Z,1027.94
2019-03-21T01:15:22.019Z,1027.87
2019-03-21T01:16:22.597Z,1027.88
2019-03-21T01:17:23.218Z,1027.84
2019-03-21T01:18:23.982Z,1027.82
2019-03-21T01:19:24.554Z,1027.83
2019-03-21T01:20:25.128Z,1027.84
2019-03-21T01:21:25.702Z,1027.85
2019-03-21T01:22:26.275Z,1027.78
2019-03-21T01:23:26.847Z,1027.76
2019-03-21T01:24:27.421Z,1027.85
2019-03-21T01:25:28.044Z,1027.90
2019-03-21T01:26:28.668Z,1027.82
2019-03-21T01:27:29.241Z,1027.80
2019-03-21T01:28:29.817Z,1027.79
2019-03-21T01:29:30.442Z,1027.78
2019-03-21T01:30:31.017Z,1027.78
2019-03-21T01:31:31.593Z,1027.87
2019-03-21T01:32:32.217Z,1027.82
2019-03-21T01:33:32.796Z,1027.73
2019-03-21T01:34:33.369Z,1027.75
2019-03-21T01:35:33.945Z,1027.76
2019-03-21T01:36:34.520Z,1027.72
2019-03-21T01:37:35.096Z,1027.70
2019-03-21T01:38:35.671Z,1027.70
2019-03-21T01:39:36.291Z,1027.72
2019-03-21T01:40:36.864Z,1027.71
2019-03-21T01:41:37.439Z,1027.73
2019-03-21T01:42:38.056Z,1027.75
2019-03-21T01:43:38.682Z,1027.77
2019-03-21T01:44:41.170Z,1027.72
2019-03-21T01:45:40.827Z,1027.73
2019-03-21T01:46:41.447Z,1027.72
2019-03-21T01:47:42.023Z,1027.71
2019-03-21T01:48:42.598Z,1027.74
2019-03-21T01:49:43.174Z,1027.68
2019-03-21T01:50:43.749Z,1027.76
2019-03-21T01:51:44.324Z,1027.65
2019-03-21T01:52:44.951Z,1027.70
2019-03-21T01:53:45.524Z,1027.66
2019-03-21T01:54:46.096Z,1027.78
2019-03-21T01:55:46.670Z,1027.71
2019-03-21T01:56:47.243Z,1027.68
2019-03-21T01:57:47.911Z,1027.64
2019-03-21T01:58:48.484Z,1027.70
2019-03-21T01:59:49.056Z,1027.65
2019-03-21T02:00:49.634Z,1027.61
2019-03-21T02:01:50.254Z,1027.68
2019-03-21T02:02:50.830Z,1027.64
2019-03-21T02:03:51.405Z,1027.68
2019-03-21T02:04:51.982Z,1027.68
2019-03-21T02:05:52.606Z,1027.70
2019-03-21T02:06:53.183Z,1027.67
2019-03-21T02:07:53.754Z,1027.69
2019-03-21T02:08:54.379Z,1027.66
2019-03-21T02:09:54.954Z,1027.64
2019-03-21T02:10:55.582Z,1027.72
2019-03-21T02:11:56.154Z,1027.65
2019-03-21T02:12:56.769Z,1027.63
2019-03-21T02:13:57.345Z,1027.62
2019-03-21T02:14:57.969Z,1027.64
2019-03-21T02:15:59.245Z,1027.64
2019-03-21T02:16:59.941Z,1027.64
2019-03-21T02:18:00.513Z,1027.57
2019-03-21T02:19:01.138Z,1027.62
2019-03-21T02:20:01.716Z,1027.57
2019-03-21T02:21:02.283Z,1027.62
2019-03-21T02:22:02.906Z,1027.56
2019-03-21T02:23:03.515Z,1027.55
2019-03-21T02:24:04.131Z,1027.54
2019-03-21T02:25:04.703Z,1027.59
2019-03-21T02:26:05.326Z,1027.57
2019-03-21T02:27:05.898Z,1027.54
2019-03-21T02:28:06.472Z,1027.57
2019-03-21T02:29:07.047Z,1027.56
2019-03-21T02:30:07.767Z,1027.47
2019-03-21T02:31:08.348Z,1027.51
2019-03-21T02:32:08.915Z,1027.53
2019-03-21T02:33:09.489Z,1027.46
2019-03-21T02:34:10.115Z,1027.49
2019-03-21T02:35:10.743Z,1027.46
2019-03-21T02:36:11.316Z,1027.46
2019-03-21T02:37:11.947Z,1027.45
2019-03-21T02:38:12.513Z,1027.52
2019-03-21T02:39:13.086Z,1027.48
2019-03-21T02:40:13.660Z,1027.50
2019-03-21T02:41:14.241Z,1027.46
2019-03-21T02:42:14.862Z,1027.44
2019-03-21T02:43:15.519Z,1027.40
2019-03-21T02:44:16.082Z,1027.43
2019-03-21T02:45:16.796Z,1027.37
2019-03-21T02:46:17.355Z,1027.42
2019-03-21T02:47:17.931Z,1027.41
2019-03-21T02:48:18.506Z,1027.37
2019-03-21T02:49:19.085Z,1027.35
2019-03-21T02:50:19.655Z,1027.41
2019-03-21T02:51:20.287Z,1027.41
2019-03-21T02:52:20.857Z,1027.34
2019-03-21T02:53:21.479Z,1027.36
2019-03-21T02:54:22.106Z,1027.39
2019-03-21T02:55:22.678Z,1027.33
2019-03-21T02:56:23.315Z,1027.38
2019-03-21T02:57:23.972Z,1027.40
2019-03-21T02:58:24.543Z,1027.37
2019-03-21T02:59:25.118Z,1027.28
2019-03-21T03:00:25.694Z,1027.37
2019-03-21T03:01:26.269Z,1027.37
2019-03-21T03:02:26.893Z,1027.35
2019-03-21T03:03:27.465Z,1027.28
2019-03-21T03:04:28.036Z,1027.33
2019-03-21T03:05:28.663Z,1027.37
2019-03-21T03:06:29.329Z,1027.28
2019-03-21T03:07:29.944Z,1027.25
2019-03-21T03:08:30.518Z,1027.22
2019-03-21T03:09:31.102Z,1027.29
2019-03-21T03:10:31.708Z,1027.24
2019-03-21T03:11:32.280Z,1027.16
2019-03-21T03:12:32.855Z,1027.27
2019-03-21T03:13:33.430Z,1027.25
2019-03-21T03:14:34.051Z,1027.25
2019-03-21T03:15:34.624Z,1027.26
2019-03-21T03:16:35.197Z,1027.24
2019-03-21T03:17:35.771Z,1027.24
2019-03-21T03:18:36.347Z,1027.21
2019-03-21T03:19:36.980Z,1027.22
2019-03-21T03:20:37.543Z,1027.22
2019-03-21T03:21:38.158Z,1027.31
2019-03-21T03:22:38.862Z,1027.24
2019-03-21T03:23:39.396Z,1027.23
2019-03-21T03:24:40.008Z,1027.28
2019-03-21T03:25:41.433Z,1027.21
2019-03-21T03:26:42.056Z,1027.24
2019-03-21T03:27:42.642Z,1027.26
2019-03-21T03:28:43.215Z,1027.22
2019-03-21T03:29:43.831Z,1027.25
2019-03-21T03:30:44.410Z,1027.21
2019-03-21T03:31:45.145Z,1027.20
2019-03-21T03:32:45.813Z,1027.28
2019-03-21T03:33:46.431Z,1027.25
2019-03-21T03:34:47.004Z,1027.23
2019-03-21T03:35:47.580Z,1027.19
2019-03-21T03:36:48.152Z,1027.22
2019-03-21T03:37:48.765Z,1027.28
2019-03-21T03:38:49.335Z,1027.26
2019-03-21T03:39:49.970Z,1027.25
2019-03-21T03:40:50.619Z,1027.21
2019-03-21T03:41:51.192Z,1027.24
2019-03-21T03:42:51.814Z,1027.23
2019-03-21T03:43:52.437Z,1027.23
2019-03-21T03:44:53.012Z,1027.29
2019-03-21T03:45:53.583Z,1027.25
2019-03-21T03:46:54.159Z,1027.34
2019-03-21T03:47:54.742Z,1027.26
2019-03-21T03:48:55.401Z,1027.36
2019-03-21T03:49:55.972Z,1027.43
2019-03-21T03:50:56.547Z,1027.33
2019-03-21T03:51:57.116Z,1027.40
2019-03-21T03:52:57.691Z,1027.42
2019-03-21T03:53:58.314Z,1027.40
2019-03-21T03:54:58.907Z,1027.41
2019-03-21T03:55:59.466Z,1027.42
2019-03-21T03:57:00.082Z,1027.51
2019-03-21T03:58:00.705Z,1027.42
2019-03-21T03:59:01.331Z,1027.44
2019-03-21T04:00:01.952Z,1027.34
2019-03-21T04:01:02.524Z,1027.37
2019-03-21T04:02:03.094Z,1027.34
2019-03-21T04:03:03.669Z,1027.32
2019-03-21T04:04:04.242Z,1027.27
2019-03-21T04:05:04.908Z,1027.30
2019-03-21T04:06:05.528Z,1027.29
2019-03-21T04:07:06.103Z,1027.36
2019-03-21T04:08:06.682Z,1027.26
2019-03-21T04:09:07.254Z,1027.26
2019-03-21T04:10:07.878Z,1027.24
2019-03-21T04:11:08.502Z,1027.22
2019-03-21T04:12:09.116Z,1027.21
2019-03-21T04:13:09.729Z,1027.23
2019-03-21T04:14:10.301Z,1027.26
2019-03-21T04:15:10.873Z,1027.22
2019-03-21T04:16:11.445Z,1027.24
2019-03-21T04:17:12.068Z,1027.25
2019-03-21T04:18:12.689Z,1027.33
2019-03-21T04:19:13.261Z,1027.29
2019-03-21T04:20:13.835Z,1027.23
2019-03-21T04:21:14.460Z,1027.34
2019-03-21T04:22:15.083Z,1027.22
2019-03-21T04:23:15.658Z,1027.21
2019-03-21T04:24:16.248Z,1027.22
2019-03-21T04:25:16.844Z,1027.22
2019-03-21T04:26:17.621Z,1027.22
2019-03-21T04:27:18.195Z,1027.27
2019-03-21T04:28:18.769Z,1027.31
2019-03-21T04:29:19.346Z,1027.26
2019-03-21T04:30:19.921Z,1027.31
2019-03-21T04:31:20.492Z,1027.37
2019-03-21T04:32:21.070Z,1027.31
2019-03-21T04:33:22.970Z,1027.29
2019-03-21T04:34:23.266Z,1027.28
2019-03-21T04:35:23.889Z,1027.22
2019-03-21T04:36:24.466Z,1027.23
2019-03-21T04:37:25.086Z,1027.28
2019-03-21T04:38:25.660Z,1027.26
2019-03-21T04:39:26.236Z,1027.28
2019-03-21T04:40:26.904Z,1027.31
2019-03-21T04:41:27.483Z,1027.25
2019-03-21T04:42:28.142Z,1027.32
2019-03-21T04:43:28.766Z,1027.34
2019-03-21T04:44:29.389Z,1027.31
2019-03-21T04:45:29.962Z,1027.19
2019-03-21T04:46:30.534Z,1027.28
2019-03-21T04:47:31.109Z,1027.25
2019-03-21T04:48:31.731Z,1027.29
2019-03-21T04:49:32.305Z,1027.29
2019-03-21T04:50:32.877Z,1027.36
2019-03-21T04:51:33.450Z,1027.42
2019-03-21T04:52:34.024Z,1027.38
2019-03-21T04:53:34.594Z,1027.37
2019-03-21T04:54:35.167Z,1027.37
2019-03-21T04:55:35.741Z,1027.35
2019-03-21T04:56:36.312Z,1027.37
2019-03-21T04:57:36.936Z,1027.32
2019-03-21T04:58:37.513Z,1027.36
2019-03-21T04:59:38.083Z,1027.36
2019-03-21T05:00:38.707Z,1027.45
2019-03-21T05:01:39.282Z,1027.45
2019-03-21T05:02:39.906Z,1027.47
2019-03-21T05:03:40.482Z,1027.53
2019-03-21T05:04:41.053Z,1027.58
2019-03-21T05:05:41.627Z,1027.55
2019-03-21T05:06:42.215Z,1027.52
2019-03-21T05:07:42.823Z,1027.61
2019-03-21T05:08:43.398Z,1027.46
2019-03-21T05:09:44.019Z,1027.54
2019-03-21T05:10:44.595Z,1027.50
2019-03-21T05:11:45.171Z,1027.49
2019-03-21T05:12:45.793Z,1027.48
2019-03-21T05:13:46.368Z,1027.49
2019-03-21T05:14:46.939Z,1027.43
2019-03-21T05:15:47.514Z,1027.47
2019-03-21T05:16:48.136Z,1027.36
2019-03-21T05:17:48.710Z,1027.29
2019-03-21T05:18:49.284Z,1027.29
2019-03-21T05:19:49.951Z,1027.29
2019-03-21T05:20:50.524Z,1027.28
2019-03-21T05:21:51.247Z,1027.27
2019-03-21T05:22:51.863Z,1027.31
2019-03-21T05:23:52.440Z,1027.26
2019-03-21T05:24:53.010Z,1027.28
2019-03-21T05:25:53.584Z,1027.28
2019-03-21T05:26:54.155Z,1027.29
2019-03-21T05:27:54.730Z,1027.43
2019-03-21T05:28:55.355Z,1027.44
2019-03-21T05:29:55.975Z,1027.37
2019-03-21T05:30:56.554Z,1027.30
2019-03-21T05:31:57.128Z,1027.34
2019-03-21T05:32:57.748Z,1027.31
2019-03-21T05:33:58.319Z,1027.32
2019-03-21T05:34:58.894Z,1027.32
2019-03-21T05:35:59.470Z,1027.34
2019-03-21T05:37:00.045Z,1027.29
2019-03-21T05:38:00.667Z,1027.26
2019-03-21T05:39:01.296Z,1027.21
2019-03-21T05:40:01.883Z,1027.17
2019-03-21T05:41:02.511Z,1027.21
2019-03-21T05:42:03.085Z,1027.22
2019-03-21T05:43:03.658Z,1027.26
2019-03-21T05:44:04.230Z,1027.24
2019-03-21T05:45:04.857Z,1027.27
2019-03-21T05:46:05.438Z,1027.25
2019-03-21T05:47:06.003Z,1027.31
2019-03-21T05:48:06.617Z,1027.29
2019-03-21T05:49:07.190Z,1027.30
2019-03-21T05:50:07.762Z,1027.26
2019-03-21T05:51:08.384Z,1027.27
2019-03-21T05:52:09.007Z,1027.32
2019-03-21T05:53:09.579Z,1027.31
2019-03-21T05:54:10.155Z,1027.24
2019-03-21T05:55:10.730Z,1027.27
2019-03-21T05:56:11.302Z,1027.31
2019-03-21T05:57:11.875Z,1027.33
2019-03-21T05:58:12.446Z,1027.28
2019-03-21T05:59:13.021Z,1027.27
2019-03-21T06:00:13.643Z,1027.29
2019-03-21T06:01:14.227Z,1027.27
2019-03-21T06:02:14.835Z,1027.29
2019-03-21T06:03:15.410Z,1027.25
2019-03-21T06:04:15.983Z,1027.19
2019-03-21T06:05:16.557Z,1027.27
2019-03-21T06:06:17.140Z,1027.28
2019-03-21T06:07:17.752Z,1027.30
2019-03-21T06:08:18.325Z,1027.27
2019-03-21T06:09:18.950Z,1027.34
2019-03-21T06:10:19.522Z,1027.24
2019-03-21T06:11:20.097Z,1027.29
2019-03-21T06:12:20.721Z,1027.31
2019-03-21T06:13:21.294Z,1027.29
2019-03-21T06:14:21.868Z,1027.27
2019-03-21T06:15:22.441Z,1027.23
2019-03-21T06:16:23.066Z,1027.26
2019-03-21T06:17:23.638Z,1027.18
2019-03-21T06:18:24.212Z,1027.27
2019-03-21T06:19:24.834Z,1027.34
2019-03-21T06:20:25.406Z,1027.35
2019-03-21T06:21:25.979Z,1027.33
2019-03-21T06:22:26.553Z,1027.39
2019-03-21T06:23:27.127Z,1027.39
2019-03-21T06:24:27.700Z,1027.40
2019-03-21T06:25:28.286Z,1027.43
2019-03-21T06:26:28.845Z,1027.50
2019-03-21T06:27:29.468Z,1027.49
2019-03-21T06:28:30.091Z,1027.42
2019-03-21T06:29:30.660Z,1027.47
2019-03-21T06:30:31.282Z,1027.46
2019-03-21T06:31:31.855Z,1027.38
2019-03-21T06:32:32.479Z,1027.36
2019-03-21T06:33:33.052Z,1027.38
2019-03-21T06:34:33.723Z,1027.40
2019-03-21T06:35:34.297Z,1027.35
2019-03-21T06:36:34.871Z,1027.39
2019-03-21T06:37:35.488Z,1027.41
2019-03-21T06:38:36.064Z,1027.41
2019-03-21T06:39:36.687Z,1027.35
2019-03-21T06:40:37.304Z,1027.52
2019-03-21T06:41:37.926Z,1027.43
2019-03-21T06:42:39.102Z,1027.47
2019-03-21T06:43:39.735Z,1027.42
2019-03-21T06:44:40.311Z,1027.44
2019-03-21T06:45:47.990Z,1027.43
2019-03-21T06:46:49.254Z,1027.38
2019-03-21T06:47:44.121Z,1027.45
2019-03-21T06:48:44.696Z,1027.49
2019-03-21T06:49:46.593Z,1027.45
2019-03-21T06:50:46.936Z,1027.48
2019-03-21T06:51:47.511Z,1027.42
2019-03-21T06:52:48.082Z,1027.45
2019-03-21T06:53:48.656Z,1027.46
2019-03-21T06:54:49.232Z,1027.41
2019-03-21T06:55:49.843Z,1027.45
2019-03-21T06:56:50.416Z,1027.48
2019-03-21T06:57:50.988Z,1027.52
2019-03-21T06:58:52.620Z,1027.45
2019-03-21T06:59:53.177Z,1027.50
2019-03-21T07:00:53.751Z,1027.53
2019-03-21T07:01:54.375Z,1027.56
2019-03-21T07:02:54.945Z,1027.58
2019-03-21T07:04:06.354Z,1027.54
2019-03-21T07:04:57.082Z,1027.54
2019-03-21T07:05:57.708Z,1027.61
2019-03-21T07:07:07.490Z,1027.64
2019-03-21T07:07:59.895Z,1027.74
2019-03-21T07:09:00.467Z,1027.61
2019-03-21T07:10:01.133Z,1027.71
2019-03-21T07:11:01.737Z,1027.63
2019-03-21T07:12:02.277Z,1027.71
2019-03-21T07:13:02.906Z,1027.61
2019-03-21T07:14:03.435Z,1027.61
2019-03-21T07:15:04.562Z,1027.55
2019-03-21T07:16:05.172Z,1027.61
2019-03-21T07:17:05.743Z,1027.64
2019-03-21T07:18:06.315Z,1027.70
2019-03-21T07:19:06.888Z,1027.69
2019-03-21T07:20:07.461Z,1027.71
2019-03-21T07:21:08.083Z,1027.77
2019-03-21T07:22:08.711Z,1027.61
2019-03-21T07:23:09.278Z,1027.76
2019-03-21T07:24:09.853Z,1027.69
2019-03-21T07:25:10.475Z,1027.68
2019-03-21T07:26:11.047Z,1027.60
2019-03-21T07:27:11.617Z,1027.71
2019-03-21T07:28:12.193Z,1027.76
2019-03-21T07:29:12.814Z,1027.71
2019-03-21T07:30:13.389Z,1027.69
2019-03-21T07:31:13.960Z,1027.69
2019-03-21T07:32:14.533Z,1027.75
2019-03-21T07:33:15.112Z,1027.75
2019-03-21T07:34:15.730Z,1027.77
2019-03-21T07:35:16.347Z,1027.79
2019-03-21T07:36:16.921Z,1027.79
2019-03-21T07:37:17.495Z,1027.81
2019-03-21T07:38:18.069Z,1027.77
2019-03-21T07:39:18.645Z,1027.80
2019-03-21T07:40:19.219Z,1027.81
2019-03-21T07:41:19.837Z,1027.90
2019-03-21T07:42:20.410Z,1027.92
2019-03-21T07:43:22.333Z,1027.89
2019-03-21T07:44:22.548Z,1027.83
2019-03-21T07:45:23.174Z,1027.86
2019-03-21T07:46:23.745Z,1027.85
2019-03-21T07:47:24.318Z,1027.80
2019-03-21T07:48:24.889Z,1027.79
2019-03-21T07:49:25.512Z,1027.83
2019-03-21T07:50:26.133Z,1027.89
2019-03-21T07:51:26.755Z,1027.83
2019-03-21T07:52:27.328Z,1027.87
2019-03-21T07:53:27.902Z,1027.78
2019-03-21T07:54:28.477Z,1027.85
2019-03-21T07:55:29.048Z,1027.86
2019-03-21T07:56:29.685Z,1027.86
2019-03-21T07:57:30.288Z,1027.81
2019-03-21T07:58:30.914Z,1027.82
2019-03-21T07:59:31.489Z,1027.83
2019-03-21T08:00:32.058Z,1027.82
2019-03-21T08:01:32.680Z,1027.84
2019-03-21T08:02:33.255Z,1027.92
2019-03-21T08:03:33.826Z,1027.84
2019-03-21T08:04:34.403Z,1027.78
2019-03-21T08:05:40.321Z,1027.84
2019-03-21T08:06:35.592Z,1027.90
2019-03-21T08:07:36.163Z,1027.84
2019-03-21T08:08:36.736Z,1027.87
2019-03-21T08:09:37.488Z,1027.89
2019-03-21T08:10:38.019Z,1027.88
2019-03-21T08:11:38.591Z,1027.94
2019-03-21T08:12:39.164Z,1027.98
2019-03-21T08:13:39.784Z,1027.98
2019-03-21T08:14:40.306Z,1027.94
2019-03-21T08:15:40.885Z,1027.98
2019-03-21T08:16:41.450Z,1028.01
2019-03-21T08:17:42.073Z,1028.05
2019-03-21T08:18:42.644Z,1028.01
2019-03-21T08:19:43.271Z,1028.07
2019-03-21T08:20:55.455Z,1028.02
2019-03-21T08:21:45.446Z,1028.05
2019-03-21T08:22:46.019Z,1028.16
2019-03-21T08:23:46.593Z,1028.19
2019-03-21T08:24:47.206Z,1028.08
2019-03-21T08:25:47.778Z,1028.13
2019-03-21T08:26:48.350Z,1028.15
2019-03-21T08:27:51.648Z,1028.18
2019-03-21T08:28:50.544Z,1028.16
2019-03-21T08:29:51.117Z,1028.16
2019-03-21T08:30:51.841Z,1028.10
2019-03-21T08:31:52.419Z,1028.19
2019-03-21T08:32:53.045Z,1028.20
2019-03-21T08:33:53.822Z,1028.13
2019-03-21T08:34:54.400Z,1028.17
2019-03-21T08:35:54.980Z,1028.16
2019-03-21T08:36:55.557Z,1028.14
2019-03-21T08:37:56.134Z,1028.24
2019-03-21T08:38:56.712Z,1028.10
2019-03-21T08:39:57.291Z,1028.17
2019-03-21T08:40:57.870Z,1028.20
2019-03-21T08:41:58.446Z,1028.17
2019-03-21T08:42:59.023Z,1028.11
2019-03-21T08:43:59.648Z,1028.14
2019-03-21T08:45:00.426Z,1028.17
2019-03-21T08:46:00.892Z,1028.13
2019-03-21T08:47:01.470Z,1028.10
2019-03-21T08:48:02.050Z,1028.16
2019-03-21T08:49:02.669Z,1028.20
2019-03-21T08:50:03.296Z,1028.07
2019-03-21T08:51:08.620Z,1028.10
2019-03-21T08:52:05.492Z,1028.07
2019-03-21T08:53:06.067Z,1028.01
2019-03-21T08:54:06.645Z,1028.12
2019-03-21T08:55:07.223Z,1028.21
2019-03-21T08:56:07.805Z,1028.17
2019-03-21T08:57:08.377Z,1028.21
2019-03-21T08:58:08.955Z,1028.23
2019-03-21T08:59:09.583Z,1028.20
2019-03-21T09:00:10.162Z,1028.23
2019-03-21T09:01:10.741Z,1028.27
2019-03-21T09:02:11.320Z,1028.35
2019-03-21T09:03:11.898Z,1028.36
2019-03-21T09:04:12.477Z,1028.38
2019-03-21T09:05:13.106Z,1028.44
2019-03-21T09:06:13.684Z,1028.38
2019-03-21T09:07:14.314Z,1028.36
2019-03-21T09:08:14.941Z,1028.37
2019-03-21T09:09:15.564Z,1028.40
2019-03-21T09:10:16.141Z,1028.35
2019-03-21T09:11:16.717Z,1028.47
2019-03-21T09:12:17.295Z,1028.40
2019-03-21T09:13:17.874Z,1028.41
2019-03-21T09:14:18.454Z,1028.44
2019-03-21T09:15:19.031Z,1028.35
2019-03-21T09:16:19.610Z,1028.43
2019-03-21T09:17:20.192Z,1028.48
2019-03-21T09:18:20.812Z,1028.53
2019-03-21T09:19:21.390Z,1028.48
2019-03-21T09:20:21.966Z,1028.49
2019-03-21T09:21:22.691Z,1028.45
2019-03-21T09:22:23.269Z,1028.46
2019-03-21T09:23:23.998Z,1028.44
2019-03-21T09:24:24.576Z,1028.44
2019-03-21T09:25:25.153Z,1028.41
2019-03-21T09:26:25.728Z,1028.49
2019-03-21T09:27:26.376Z,1028.49
2019-03-21T09:28:26.989Z,1028.48
2019-03-21T09:29:27.564Z,1028.50
2019-03-21T09:30:28.142Z,1028.47
2019-03-21T09:31:28.720Z,1028.46
2019-03-21T09:32:29.297Z,1028.54
2019-03-21T09:33:29.876Z,1028.50
2019-03-21T09:34:30.454Z,1028.42
2019-03-21T09:35:31.032Z,1028.40
2019-03-21T09:36:31.609Z,1028.45
2019-03-21T09:37:32.189Z,1028.39
2019-03-21T09:38:32.769Z,1028.46
2019-03-21T09:39:33.398Z,1028.58
2019-03-21T09:40:34.035Z,1028.54
2019-03-21T09:41:34.640Z,1028.59
2019-03-21T09:42:35.220Z,1028.50
2019-03-21T09:43:35.801Z,1028.55
2019-03-21T09:44:36.426Z,1028.50
2019-03-21T09:45:37.006Z,1028.50
2019-03-21T09:46:37.634Z,1028.55
2019-03-21T09:47:38.215Z,1028.56
2019-03-21T09:48:39.037Z,1028.53
2019-03-21T09:49:39.617Z,1028.56
2019-03-21T09:50:40.187Z,1028.55
2019-03-21T09:51:40.767Z,1028.54
2019-03-21T09:52:41.395Z,1028.55
2019-03-21T09:53:41.976Z,1028.57
2019-03-21T09:54:42.551Z,1028.49
2019-03-21T09:55:43.180Z,1028.57
2019-03-21T09:56:43.758Z,1028.56
2019-03-21T09:57:44.340Z,1028.56
2019-03-21T09:58:44.913Z,1028.50
2019-03-21T09:59:45.541Z,1028.55
2019-03-21T10:00:46.119Z,1028.49
2019-03-21T10:01:46.698Z,1028.52
2019-03-21T10:02:47.328Z,1028.51
2019-03-21T10:03:47.908Z,1028.58
2019-03-21T10:04:48.580Z,1028.59
2019-03-21T10:05:49.158Z,1028.57
2019-03-21T10:06:49.742Z,1028.49
2019-03-21T10:07:50.318Z,1028.49
2019-03-21T10:08:50.898Z,1028.54
2019-03-21T10:09:51.476Z,1028.53
2019-03-21T10:10:52.054Z,1028.57
2019-03-21T10:11:52.636Z,1028.56
2019-03-21T10:12:55.488Z,1028.53
2019-03-21T10:13:54.786Z,1028.56
2019-03-21T10:14:55.364Z,1028.55
2019-03-21T10:15:55.942Z,1028.57
2019-03-21T10:16:56.520Z,1028.53
2019-03-21T10:17:57.101Z,1028.52
2019-03-21T10:18:57.681Z,1028.48
2019-03-21T10:19:58.312Z,1028.53
2019-03-21T10:20:58.894Z,1028.61
2019-03-21T10:21:59.472Z,1028.58
2019-03-21T10:23:00.059Z,1028.55
2019-03-21T10:24:00.726Z,1028.60
2019-03-21T10:25:01.355Z,1028.61
2019-03-21T10:26:01.985Z,1028.52
2019-03-21T10:27:02.563Z,1028.64
2019-03-21T10:28:03.143Z,1028.60
2019-03-21T10:29:03.723Z,1028.58
2019-03-21T10:30:04.304Z,1028.67
2019-03-21T10:31:04.884Z,1028.58
2019-03-21T10:32:13.912Z,1028.53
2019-03-21T10:33:06.231Z,1028.60
2019-03-21T10:34:06.814Z,1028.56
2019-03-21T10:35:07.396Z,1028.58
2019-03-21T10:36:07.973Z,1028.51
2019-03-21T10:37:08.554Z,1028.62
2019-03-21T10:38:09.136Z,1028.54
2019-03-21T10:39:09.724Z,1028.53
2019-03-21T10:40:10.345Z,1028.54
2019-03-21T10:41:10.925Z,1028.48
2019-03-21T10:42:11.512Z,1028.49
2019-03-21T10:43:12.090Z,1028.43
2019-03-21T10:44:12.721Z,1028.54
2019-03-21T10:45:13.351Z,1028.48
2019-03-21T10:46:13.984Z,1028.54
2019-03-21T10:47:14.566Z,1028.38
2019-03-21T10:48:15.146Z,1028.44
2019-03-21T10:49:15.745Z,1028.47
2019-03-21T10:50:16.310Z,1028.49
2019-03-21T10:51:16.891Z,1028.44
2019-03-21T10:52:17.469Z,1028.51
2019-03-21T10:53:18.049Z,1028.58
2019-03-21T10:54:18.631Z,1028.52
2019-03-21T10:55:19.215Z,1028.49
2019-03-21T10:56:19.793Z,1028.47
2019-03-21T10:57:20.374Z,1028.51
2019-03-21T10:58:20.959Z,1028.42
2019-03-21T10:59:21.590Z,1028.48
2019-03-21T11:00:22.171Z,1028.50
2019-03-21T11:01:22.757Z,1028.41
2019-03-21T11:02:23.390Z,1028.47
2019-03-21T11:03:23.966Z,1028.36
2019-03-21T11:04:24.602Z,1028.51
2019-03-21T11:05:25.189Z,1028.56
2019-03-21T11:06:25.771Z,1028.61
2019-03-21T11:07:26.355Z,1028.55
2019-03-21T11:08:26.941Z,1028.56
2019-03-21T11:09:27.525Z,1028.61
2019-03-21T11:12:31.250Z,1028.59
2019-03-21T11:13:31.879Z,1028.62
2019-03-21T11:14:32.459Z,1028.62
2019-03-21T11:15:33.089Z,1028.64
2019-03-21T11:16:33.671Z,1028.62
2019-03-21T11:17:34.297Z,1028.73
2019-03-21T11:18:36.253Z,1028.59
2019-03-21T11:19:36.453Z,1028.63
2019-03-21T11:20:38.047Z,1028.65
2019-03-21T11:21:38.683Z,1028.56
2019-03-21T11:22:39.315Z,1028.69
2019-03-21T11:23:39.901Z,1028.61
2019-03-21T11:24:40.488Z,1028.57
2019-03-21T11:25:41.146Z,1028.68
2019-03-21T11:27:12.752Z,1028.64
2019-03-21T11:28:13.342Z,1028.60
2019-03-21T11:29:13.936Z,1028.54
2019-03-21T11:30:16.212Z,1028.61
2019-03-21T11:31:16.116Z,1028.52
2019-03-21T11:32:16.707Z,1028.50
2019-03-21T11:33:17.299Z,1028.54
2019-03-21T11:34:17.894Z,1028.54
2019-03-21T11:35:18.483Z,1028.55
2019-03-21T11:36:19.076Z,1028.48
2019-03-21T11:37:37.387Z,1028.45
2019-03-21T11:38:38.018Z,1028.53
2019-03-21T11:39:38.610Z,1028.48
2019-03-21T11:40:39.210Z,1028.48
2019-03-21T11:41:39.953Z,1028.44
2019-03-21T11:42:40.543Z,1028.53
2019-03-21T11:43:41.133Z,1028.47
2019-03-21T11:44:41.777Z,1028.47
2019-03-21T11:45:42.377Z,1028.44
2019-03-21T11:47:44.597Z,1028.46
2019-03-21T11:48:58.948Z,1028.38
2019-03-21T11:50:13.235Z,1028.45
2019-03-21T11:51:13.834Z,1028.39
2019-03-21T11:52:18.433Z,1028.42
2019-03-21T11:53:16.055Z,1028.46
2019-03-21T11:54:16.651Z,1028.39
2019-03-21T11:55:17.251Z,1028.41
2019-03-21T11:56:17.840Z,1028.49
2019-03-21T11:57:18.436Z,1028.47
2019-03-21T11:58:19.031Z,1028.39
2019-03-21T11:59:19.674Z,1028.48
2019-03-21T12:00:20.268Z,1028.40
2019-03-21T12:01:20.865Z,1028.41
2019-03-21T12:02:27.152Z,1028.51
2019-03-21T12:05:26.262Z,1028.44
2019-03-21T12:06:26.858Z,1028.45
2019-03-21T12:07:27.503Z,1028.39
2019-03-21T12:08:28.150Z,1028.40
2019-03-21T12:09:28.743Z,1028.41
2019-03-21T12:10:29.339Z,1028.36
2019-03-21T12:11:29.935Z,1028.41
2019-03-21T12:12:30.528Z,1028.29
2019-03-21T12:13:31.175Z,1028.36
2019-03-21T12:14:31.821Z,1028.31
2019-03-21T12:15:32.415Z,1028.28
2019-03-21T12:16:33.011Z,1028.32
2019-03-21T12:17:33.656Z,1028.42
2019-03-21T12:18:34.306Z,1028.33
2019-03-21T12:19:34.924Z,1028.41